Time;durP1;ratioP1;P1;durP2;ratioP2;P2;SDS_P1;SDS_P2;PMS_P1;PMS_P2;Temp;Humidity;BMP_temperature;BMP_pressure;BME280_temperature;BME280_humidity;BME280_pressure;Samples;Min_cycle;Max_cycle;Signal;HPM_P1;HPM_P2
2024/01/03 00:02:20;;;;;;;3.08;0.60;;;8.70;99.90;;;;;;5074701;28;20044;-59
2024/01/03 00:04:46;;;;;;;3.97;0.60;;;8.70;99.90;;;;;;5074878;28;20146;-57
2024/01/03 00:07:13;;;;;;;4.73;0.50;;;8.60;99.90;;;;;;5074466;28;20056;-59
2024/01/03 00:09:39;;;;;;;4.38;0.70;;;8.60;99.90;;;;;;5074607;28;20080;-60
2024/01/03 00:12:07;;;;;;;6.17;0.67;;;8.60;99.90;;;;;;5074647;28;20476;-59
2024/01/03 00:14:34;;;;;;;3.65;0.68;;;8.50;99.90;;;;;;5074544;28;20500;-59
2024/01/03 00:17:07;;;;;;;4.97;1.13;;;8.50;99.90;;;;;;5074407;28;20432;-59
2024/01/03 00:19:35;;;;;;;6.15;0.73;;;8.50;99.90;;;;;;5074458;28;20052;-60
2024/01/03 00:22:01;;;;;;;4.20;0.90;;;8.50;99.90;;;;;;5074333;28;20048;-62
2024/01/03 00:24:28;;;;;;;4.03;0.80;;;8.50;99.90;;;;;;5075105;28;20127;-59
2024/01/03 00:26:53;;;;;;;;;;;8.60;99.90;;;;;;5074592;28;20084;-59
2024/01/03 00:29:22;;;;;;;6.80;0.52;;;8.60;99.90;;;;;;5074166;28;19971;-59
2024/01/03 00:31:48;;;;;;;6.88;0.77;;;8.50;99.90;;;;;;5074242;28;20044;-59
2024/01/03 00:34:33;;;;;;;3.03;0.75;;;8.50;99.90;;;;;;5074192;28;20044;-60
2024/01/03 00:36:58;;;;;;;4.05;0.60;;;8.50;99.90;;;;;;5073121;28;20053;-59
2024/01/03 00:39:32;;;;;;;2.93;0.33;;;8.50;99.90;;;;;;5074129;28;20102;-60
2024/01/03 00:41:58;;;;;;;4.72;0.60;;;8.50;99.90;;;;;;5073873;28;20067;-60
2024/01/03 00:44:24;;;;;;;5.63;0.60;;;8.40;99.90;;;;;;5073449;28;20563;-60
2024/01/03 00:46:54;;;;;;;3.67;1.07;;;8.40;99.90;;;;;;5073662;28;20044;-59
2024/01/03 00:49:20;;;;;;;4.45;1.35;;;8.40;99.90;;;;;;5074064;28;20128;-59
2024/01/03 00:51:49;;;;;;;4.63;0.65;;;8.40;99.90;;;;;;5073860;28;20080;-59
2024/01/03 00:54:17;;;;;;;6.63;0.57;;;8.40;99.90;;;;;;5074035;28;20059;-59
2024/01/03 00:56:44;;;;;;;6.15;0.75;;;8.30;99.90;;;;;;5073704;28;20076;-59
2024/01/03 00:59:10;;;;;;;9.38;2.15;;;8.30;99.90;;;;;;5073751;28;20101;-60
2024/01/03 01:01:36;;;;;;;5.80;0.68;;;8.30;99.90;;;;;;5073547;28;20079;-60
2024/01/03 01:04:02;;;;;;;5.13;0.60;;;8.30;99.90;;;;;;5073560;28;20086;-60
2024/01/03 01:06:29;;;;;;;3.83;0.70;;;8.30;99.90;;;;;;5073792;28;20056;-59
2024/01/03 01:08:55;;;;;;;4.07;0.80;;;8.30;99.90;;;;;;5073633;28;20060;-59
2024/01/03 01:11:20;;;;;;;6.77;1.50;;;8.30;99.90;;;;;;5073590;28;20381;-60
2024/01/03 01:13:46;;;;;;;7.20;0.83;;;8.30;99.90;;;;;;5072489;28;20047;-58
2024/01/03 01:16:11;;;;;;;7.93;1.03;;;8.30;99.90;;;;;;5073354;28;20036;-60
2024/01/03 01:18:40;;;;;;;5.77;1.30;;;8.30;99.90;;;;;;5072639;28;20041;-59
2024/01/03 01:21:06;;;;;;;4.90;0.77;;;8.30;99.90;;;;;;5073592;28;20040;-59
2024/01/03 01:23:33;;;;;;;4.93;1.03;;;8.30;99.90;;;;;;5073497;28;20050;-59
2024/01/03 01:25:59;;;;;;;5.97;0.70;;;8.30;99.90;;;;;;5073366;28;20040;-58
2024/01/03 01:28:24;;;;;;;3.43;1.00;;;8.30;99.90;;;;;;5072491;28;20102;-60
2024/01/03 01:30:50;;;;;;;4.30;0.57;;;8.30;99.90;;;;;;5073424;28;20135;-59
2024/01/03 01:33:15;;;;;;;6.30;1.37;;;8.30;99.90;;;;;;5073437;28;20049;-58
2024/01/03 01:35:41;;;;;;;6.03;0.63;;;8.30;99.90;;;;;;5073396;28;20079;-58
2024/01/03 01:38:07;;;;;;;5.40;1.10;;;8.40;99.90;;;;;;5072245;28;20098;-59
2024/01/03 01:40:32;;;;;;;5.53;0.90;;;8.30;99.90;;;;;;5073371;28;20045;-59
2024/01/03 01:42:58;;;;;;;4.90;0.77;;;8.40;99.90;;;;;;5073374;28;20044;-58
2024/01/03 01:45:24;;;;;;;3.10;0.50;;;8.30;99.90;;;;;;5073162;28;20093;-58
2024/01/03 01:47:50;;;;;;;3.20;0.90;;;8.30;99.90;;;;;;5074006;28;20079;-58
2024/01/03 01:50:17;;;;;;;3.55;0.70;;;8.30;99.90;;;;;;5073339;28;20056;-58
2024/01/03 01:52:43;;;;;;;8.82;1.10;;;8.40;99.90;;;;;;5073200;28;20056;-60
2024/01/03 01:55:10;;;;;;;7.80;0.95;;;8.30;99.90;;;;;;5076036;28;20051;-58
2024/01/03 01:57:37;;;;;;;;;;;8.30;99.90;;;;;;5077635;28;20052;-58
2024/01/03 02:00:04;;;;;;;10.98;1.38;;;8.40;99.90;;;;;;5076863;28;19924;-59
2024/01/03 02:02:30;;;;;;;4.90;1.02;;;8.40;99.90;;;;;;5077383;28;20047;-58
2024/01/03 02:04:58;;;;;;;2.58;0.60;;;8.30;99.90;;;;;;5076705;28;20066;-58
2024/01/03 02:07:25;;;;;;;6.55;0.90;;;8.40;99.90;;;;;;5077320;28;20052;-59
2024/01/03 02:09:50;;;;;;;;;;;8.40;99.90;;;;;;5077579;28;20133;-59
2024/01/03 02:12:16;;;;;;;4.80;0.77;;;8.40;99.90;;;;;;5077153;28;20387;-59
2024/01/03 02:14:41;;;;;;;6.40;1.00;;;8.40;99.90;;;;;;5076848;28;20106;-59
2024/01/03 02:17:08;;;;;;;5.63;0.93;;;8.40;99.90;;;;;;5076907;28;20388;-59
2024/01/03 02:19:33;;;;;;;6.43;1.00;;;8.50;99.90;;;;;;5077113;28;20045;-59
2024/01/03 02:22:00;;;;;;;5.83;1.00;;;8.50;99.90;;;;;;5076712;28;20037;-58
2024/01/03 02:24:26;;;;;;;6.65;0.85;;;8.50;99.90;;;;;;5076858;28;20565;-58
2024/01/03 02:26:51;;;;;;;5.50;0.63;;;8.50;99.90;;;;;;5076517;28;20041;-58
2024/01/03 02:29:17;;;;;;;3.60;0.60;;;8.50;99.90;;;;;;5076532;28;20040;-58
2024/01/03 02:31:42;;;;;;;9.43;1.40;;;8.50;99.90;;;;;;5076599;28;20527;-58
2024/01/03 02:34:08;;;;;;;8.27;1.50;;;8.50;99.90;;;;;;5076466;28;20044;-59
2024/01/03 02:36:34;;;;;;;6.47;0.87;;;8.50;99.90;;;;;;5076539;28;20036;-58
2024/01/03 02:39:00;;;;;;;7.67;0.93;;;8.50;99.90;;;;;;5076721;28;20430;-58
2024/01/03 02:41:26;;;;;;;6.07;0.77;;;8.50;99.90;;;;;;5076292;28;20040;-58
2024/01/03 02:43:51;;;;;;;10.07;1.13;;;8.50;99.90;;;;;;5076164;28;20127;-59
2024/01/03 02:46:20;;;;;;;6.63;1.50;;;8.50;99.90;;;;;;5076757;28;20080;-58
2024/01/03 02:48:45;;;;;;;4.30;0.68;;;8.50;99.90;;;;;;5076259;28;20044;-58
2024/01/03 02:51:21;;;;;;;8.33;1.37;;;8.50;99.90;;;;;;5076088;28;20534;-58
2024/01/03 02:53:48;;;;;;;8.77;0.93;;;8.50;99.90;;;;;;5075026;28;20052;-58
2024/01/03 02:56:14;;;;;;;6.72;1.10;;;8.50;99.90;;;;;;5075892;28;20516;-58
2024/01/03 02:58:40;;;;;;;2.95;0.68;;;8.50;99.90;;;;;;5076108;28;20045;-59
2024/01/03 03:01:06;;;;;;;6.60;1.27;;;8.60;99.90;;;;;;5076066;28;20610;-60
2024/01/03 03:03:31;;;;;;;6.77;1.27;;;8.50;99.90;;;;;;5075958;28;20126;-59
2024/01/03 03:05:57;;;;;;;5.90;0.63;;;8.60;99.90;;;;;;5074459;28;20131;-60
2024/01/03 03:08:23;;;;;;;10.05;0.90;;;8.60;99.90;;;;;;5075659;28;20060;-59
2024/01/03 03:10:49;;;;;;;5.60;1.00;;;8.60;99.90;;;;;;5075718;28;20056;-56
2024/01/03 03:13:14;;;;;;;6.57;0.80;;;8.60;99.90;;;;;;5075563;28;20055;-59
2024/01/03 03:15:42;;;;;;;5.07;0.60;;;8.60;99.90;;;;;;5076115;28;20118;-58
2024/01/03 03:18:08;;;;;;;6.53;0.90;;;8.60;99.90;;;;;;5075727;28;20040;-58
2024/01/03 03:20:33;;;;;;;4.68;0.70;;;8.70;99.90;;;;;;5075635;28;20041;-59
2024/01/03 03:22:59;;;;;;;3.40;0.50;;;8.70;99.90;;;;;;5075570;28;20044;-58
2024/01/03 03:25:25;;;;;;;10.00;1.40;;;8.70;99.90;;;;;;5075446;28;20510;-58
2024/01/03 03:27:51;;;;;;;3.97;0.67;;;8.70;99.90;;;;;;5075333;28;20090;-58
2024/01/03 03:30:17;;;;;;;5.45;0.82;;;8.70;99.90;;;;;;5075706;28;20048;-57
2024/01/03 03:32:45;;;;;;;4.35;0.60;;;8.70;99.90;;;;;;5075377;28;20143;-58
2024/01/03 03:35:12;;;;;;;3.70;0.60;;;8.70;99.90;;;;;;5075375;28;20040;-59
2024/01/03 03:37:38;;;;;;;;;;;8.70;99.90;;;;;;5074947;28;20048;-58
2024/01/03 03:40:04;;;;;;;6.28;0.73;;;8.70;99.90;;;;;;5075053;28;20430;-58
2024/01/03 03:42:30;;;;;;;4.25;0.90;;;8.70;99.90;;;;;;5074969;28;20049;-59
2024/01/03 03:44:56;;;;;;;3.70;0.50;;;8.70;99.90;;;;;;5075210;28;20071;-58
2024/01/03 03:47:21;;;;;;;6.27;0.93;;;8.70;99.90;;;;;;5075216;28;20052;-59
2024/01/03 03:49:47;;;;;;;6.63;1.27;;;8.80;99.90;;;;;;5075039;28;20048;-59
2024/01/03 03:52:13;;;;;;;5.13;0.80;;;8.80;99.90;;;;;;5074896;28;20053;-61
2024/01/03 03:54:38;;;;;;;5.50;1.03;;;8.80;99.90;;;;;;5074945;28;20514;-57
2024/01/03 03:57:04;;;;;;;6.47;0.80;;;8.80;99.90;;;;;;5074845;28;20129;-58
2024/01/03 03:59:30;;;;;;;5.43;0.70;;;8.80;99.90;;;;;;5074927;28;20103;-58
2024/01/03 04:01:55;;;;;;;3.53;0.70;;;8.80;99.90;;;;;;5074919;28;20047;-60
2024/01/03 04:04:21;;;;;;;2.73;0.50;;;8.80;99.90;;;;;;5074868;28;20139;-58
2024/01/03 04:06:47;;;;;;;4.00;0.47;;;8.80;99.90;;;;;;5074633;28;20052;-58
2024/01/03 04:09:16;;;;;;;2.43;0.30;;;8.80;99.90;;;;;;5074633;28;20048;-58
2024/01/03 04:11:43;;;;;;;5.63;0.57;;;8.90;99.90;;;;;;5074445;28;20135;-59
2024/01/03 04:14:11;;;;;;;4.95;0.90;;;8.90;99.90;;;;;;5074887;28;20044;-59
2024/01/03 04:16:37;;;;;;;6.47;0.70;;;8.90;99.90;;;;;;5073276;28;20040;-59
2024/01/03 04:19:03;;;;;;;5.00;0.50;;;8.90;99.90;;;;;;5074401;28;20056;-59
2024/01/03 04:21:32;;;;;;;6.03;0.50;;;8.80;99.90;;;;;;5074266;28;20044;-58
2024/01/03 04:23:58;;;;;;;2.47;0.50;;;8.80;99.90;;;;;;5074150;28;20048;-58
2024/01/03 04:26:27;;;;;;;3.55;0.50;;;8.80;99.90;;;;;;5072922;28;20052;-58
2024/01/03 04:28:52;;;;;;;4.45;0.80;;;8.80;99.90;;;;;;5074504;28;20592;-59
2024/01/03 04:31:18;;;;;;;3.30;0.70;;;8.80;99.90;;;;;;5074316;28;20048;-58
2024/01/03 04:33:44;;;;;;;5.40;0.60;;;8.80;99.90;;;;;;5074354;28;20052;-58
2024/01/03 04:36:12;;;;;;;10.33;0.60;;;8.80;99.90;;;;;;5074319;28;20123;-58
2024/01/03 04:38:38;;;;;;;3.38;0.43;;;8.80;99.90;;;;;;5073931;28;20048;-58
2024/01/03 04:41:04;;;;;;;4.43;0.50;;;8.80;99.90;;;;;;5074197;28;20109;-58
2024/01/03 04:43:29;;;;;;;4.50;0.60;;;8.80;99.90;;;;;;5074351;28;20045;-58
2024/01/03 04:45:55;;;;;;;2.23;0.40;;;8.80;99.90;;;;;;5073978;28;20564;-58
2024/01/03 04:48:21;;;;;;;4.23;0.70;;;8.80;99.90;;;;;;5074025;28;20131;-59
2024/01/03 04:50:46;;;;;;;2.40;0.70;;;8.90;99.90;;;;;;5073834;28;20182;-59
2024/01/03 04:53:12;;;;;;;5.27;0.93;;;8.90;99.90;;;;;;5073761;28;20083;-58
2024/01/03 04:55:38;;;;;;;3.53;0.40;;;8.90;99.90;;;;;;5073950;28;20040;-58
2024/01/03 04:58:04;;;;;;;3.53;0.70;;;8.90;99.90;;;;;;5073010;28;20051;-58
2024/01/03 05:00:30;;;;;;;5.18;0.63;;;8.90;99.90;;;;;;5073918;28;20395;-57
2024/01/03 05:02:56;;;;;;;3.67;0.45;;;8.90;99.90;;;;;;5073823;28;20048;-58
2024/01/03 05:05:22;;;;;;;3.30;0.60;;;8.90;99.90;;;;;;5073722;28;20547;-58
2024/01/03 05:07:48;;;;;;;1.90;0.40;;;8.90;99.90;;;;;;5073591;28;20816;-57
2024/01/03 05:10:13;;;;;;;4.47;0.70;;;8.90;99.90;;;;;;5073905;28;20040;-57
2024/01/03 05:12:39;;;;;;;2.90;0.60;;;8.90;99.90;;;;;;5073777;28;20500;-59
2024/01/03 05:15:06;;;;;;;3.97;0.80;;;8.90;99.90;;;;;;5073759;28;20048;-58
2024/01/03 05:17:31;;;;;;;4.72;0.70;;;8.90;99.90;;;;;;5073721;28;20135;-58
2024/01/03 05:19:57;;;;;;;7.43;0.93;;;8.90;99.90;;;;;;5073791;28;20178;-58
2024/01/03 05:22:23;;;;;;;5.20;0.87;;;8.90;99.90;;;;;;5073526;28;20105;-59
2024/01/03 05:24:49;;;;;;;3.87;0.70;;;8.90;99.90;;;;;;5073578;28;20283;-58
2024/01/03 05:27:14;;;;;;;3.13;1.00;;;8.90;99.90;;;;;;5073249;28;20041;-58
2024/01/03 05:29:41;;;;;;;4.17;0.60;;;8.90;99.90;;;;;;5072974;28;20045;-58
2024/01/03 05:32:06;;;;;;;5.15;0.80;;;8.90;99.90;;;;;;5073755;28;20124;-59
2024/01/03 05:34:32;;;;;;;4.57;0.70;;;8.90;99.90;;;;;;5073493;28;20179;-58
2024/01/03 05:36:57;;;;;;;6.87;0.97;;;8.90;99.90;;;;;;5072614;28;20471;-57
2024/01/03 05:39:23;;;;;;;5.43;0.63;;;9.00;99.90;;;;;;5073535;28;20044;-59
2024/01/03 05:41:49;;;;;;;2.27;0.60;;;9.00;99.90;;;;;;5073822;28;20151;-59
2024/01/03 05:44:15;;;;;;;2.65;0.73;;;9.00;99.90;;;;;;5073551;28;20521;-59
2024/01/03 05:46:42;;;;;;;3.22;0.60;;;9.00;99.90;;;;;;5073254;28;20053;-58
2024/01/03 05:49:08;;;;;;;3.20;0.55;;;9.00;99.90;;;;;;5073384;28;20074;-58
2024/01/03 05:51:33;;;;;;;4.43;0.87;;;9.00;99.90;;;;;;5073206;28;20044;-59
2024/01/03 05:54:00;;;;;;;3.90;0.60;;;9.00;99.90;;;;;;5071973;28;20823;-58
2024/01/03 05:56:27;;;;;;;3.75;0.70;;;8.90;99.90;;;;;;5073366;28;20411;-58
2024/01/03 05:58:52;;;;;;;4.75;0.77;;;8.90;99.90;;;;;;5073294;28;20052;-58
2024/01/03 06:01:18;;;;;;;1.50;0.33;;;8.80;99.90;;;;;;5073138;28;20207;-58
2024/01/03 06:03:44;;;;;;;4.00;1.10;;;8.80;99.90;;;;;;5073144;28;20048;-58
2024/01/03 06:06:10;;;;;;;2.70;0.50;;;8.70;99.90;;;;;;5073255;28;20059;-57
2024/01/03 06:08:36;;;;;;;4.72;0.50;;;8.70;99.90;;;;;;5073258;28;20079;-57
2024/01/03 06:11:01;;;;;;;5.80;0.50;;;8.70;99.90;;;;;;5073180;28;20087;-57
2024/01/03 06:13:28;;;;;;;4.23;0.50;;;8.60;99.90;;;;;;5072071;28;20055;-58
2024/01/03 06:15:54;;;;;;;;;;;8.60;99.90;;;;;;5073459;28;20056;-57
2024/01/03 06:18:21;;;;;;;6.57;1.00;;;8.60;99.90;;;;;;5072085;28;20329;-57
2024/01/03 06:20:47;;;;;;;4.47;1.25;;;8.60;99.90;;;;;;5072762;28;20488;-57
2024/01/03 06:23:12;;;;;;;9.13;1.67;;;8.60;99.90;;;;;;5072821;28;20154;-58
2024/01/03 06:25:38;;;;;;;12.67;1.77;;;8.60;99.90;;;;;;5073535;28;20394;-58
2024/01/03 06:28:04;;;;;;;10.20;1.50;;;8.60;99.90;;;;;;5073090;28;20052;-58
2024/01/03 06:30:30;;;;;;;8.48;1.35;;;8.60;99.90;;;;;;5073039;28;20040;-58
2024/01/03 06:32:56;;;;;;;8.77;1.20;;;8.70;99.90;;;;;;5073071;28;20044;-58
2024/01/03 06:35:21;;;;;;;9.47;1.27;;;8.70;99.90;;;;;;5071736;28;20381;-57
2024/01/03 06:37:47;;;;;;;9.83;1.23;;;8.80;99.90;;;;;;5071711;28;20048;-57
2024/01/03 06:40:14;;;;;;;7.93;1.23;;;8.80;99.90;;;;;;5072897;28;20041;-58
2024/01/03 06:42:40;;;;;;;7.80;1.10;;;8.80;99.90;;;;;;5075505;28;20055;-58
2024/01/03 06:45:06;;;;;;;8.73;1.30;;;8.80;99.90;;;;;;5076394;28;20052;-58
2024/01/03 06:47:32;;;;;;;13.18;1.83;;;8.80;99.90;;;;;;5075217;28;20048;-56
2024/01/03 06:49:57;;;;;;;8.47;1.37;;;8.80;99.90;;;;;;5076234;28;20040;-57
2024/01/03 06:52:23;;;;;;;7.20;1.13;;;8.80;99.90;;;;;;5076056;28;20048;-57
2024/01/03 06:54:49;;;;;;;7.67;1.33;;;8.70;99.90;;;;;;5076224;28;20041;-58
2024/01/03 06:57:15;;;;;;;13.63;2.55;;;8.80;99.90;;;;;;5076227;28;20127;-57
2024/01/03 06:59:41;;;;;;;13.40;1.30;;;8.80;99.90;;;;;;5076031;28;20086;-57
2024/01/03 07:02:07;;;;;;;7.87;1.07;;;8.80;99.90;;;;;;5076019;28;20083;-57
2024/01/03 07:04:33;;;;;;;11.63;1.63;;;8.80;99.90;;;;;;5076102;28;20450;-57
2024/01/03 07:06:59;;;;;;;8.53;1.63;;;8.80;99.90;;;;;;5075827;28;20052;-57
2024/01/03 07:09:25;;;;;;;5.63;1.70;;;8.80;99.90;;;;;;5075939;28;20395;-57
2024/01/03 07:11:51;;;;;;;12.53;1.30;;;8.80;99.90;;;;;;5074875;28;20059;-57
2024/01/03 07:14:16;;;;;;;7.17;1.10;;;8.90;99.90;;;;;;5075699;28;20049;-58
2024/01/03 07:16:42;;;;;;;9.27;1.37;;;8.90;99.90;;;;;;5076014;28;20047;-57
2024/01/03 07:19:08;;;;;;;8.87;1.00;;;8.90;99.90;;;;;;5075622;28;20127;-57
2024/01/03 07:21:33;;;;;;;6.30;1.10;;;8.90;99.90;;;;;;5075786;28;20044;-58
2024/01/03 07:23:59;;;;;;;12.30;1.83;;;8.90;99.90;;;;;;5076066;28;20052;-58
2024/01/03 07:26:25;;;;;;;6.87;0.90;;;8.90;99.90;;;;;;5075567;28;20040;-57
2024/01/03 07:28:51;;;;;;;13.33;1.40;;;8.90;99.90;;;;;;5075616;28;20492;-58
2024/01/03 07:31:16;;;;;;;5.20;0.90;;;8.90;99.90;;;;;;5075601;28;20043;-57
2024/01/03 07:33:42;;;;;;;5.90;1.57;;;8.90;99.90;;;;;;5075534;28;20485;-57
2024/01/03 07:36:08;;;;;;;7.70;1.20;;;8.90;99.90;;;;;;5075424;28;20506;-57
2024/01/03 07:38:34;;;;;;;11.93;1.53;;;8.90;99.90;;;;;;5075446;28;20044;-58
2024/01/03 07:41:00;;;;;;;10.90;1.33;;;8.90;99.90;;;;;;5075246;28;20364;-58
2024/01/03 07:43:29;;;;;;;9.90;1.08;;;8.90;99.90;;;;;;5075313;28;20051;-57
2024/01/03 07:45:55;;;;;;;11.88;1.50;;;8.90;99.90;;;;;;5075174;28;20499;-58
2024/01/03 07:48:21;;;;;;;11.18;1.35;;;8.90;99.90;;;;;;5075035;28;20048;-57
2024/01/03 07:50:47;;;;;;;5.37;0.70;;;8.90;99.90;;;;;;5075273;28;20400;-58
2024/01/03 07:53:12;;;;;;;5.17;0.90;;;8.90;99.90;;;;;;5075002;28;20052;-58
2024/01/03 07:55:38;;;;;;;8.20;1.33;;;8.90;99.90;;;;;;5075018;28;20036;-58
2024/01/03 07:58:04;;;;;;;8.60;1.27;;;8.90;99.90;;;;;;5074892;28;20127;-58
2024/01/03 08:00:30;;;;;;;6.30;1.07;;;8.90;99.90;;;;;;5074303;28;20051;-58
2024/01/03 08:02:59;;;;;;;8.35;1.05;;;8.90;99.90;;;;;;5074862;28;20097;-57
2024/01/03 08:05:24;;;;;;;4.60;0.90;;;8.90;99.90;;;;;;5074603;28;20098;-57
2024/01/03 08:07:50;;;;;;;6.50;0.83;;;8.90;99.90;;;;;;5075255;28;20491;-59
2024/01/03 08:10:16;;;;;;;9.00;1.10;;;8.90;99.90;;;;;;5074795;28;20040;-57
2024/01/03 08:12:42;;;;;;;7.00;1.17;;;8.90;99.90;;;;;;5074726;28;20083;-58
2024/01/03 08:15:08;;;;;;;11.20;1.10;;;8.90;99.90;;;;;;5074552;28;20080;-58
2024/01/03 08:17:34;;;;;;;5.93;0.80;;;8.90;99.90;;;;;;5074555;28;20048;-57
2024/01/03 08:20:00;;;;;;;12.40;1.63;;;8.90;99.90;;;;;;5074641;28;20053;-58
2024/01/03 08:22:26;;;;;;;10.23;2.08;;;8.90;99.90;;;;;;5074607;28;20344;-57
2024/01/03 08:24:52;;;;;;;8.53;1.77;;;8.90;99.90;;;;;;5074512;28;20044;-58
2024/01/03 08:27:18;;;;;;;10.07;1.65;;;8.90;99.90;;;;;;5074557;28;20044;-58
2024/01/03 08:29:44;;;;;;;6.50;1.00;;;8.90;99.90;;;;;;5074482;28;20044;-57
2024/01/03 08:32:10;;;;;;;7.18;1.20;;;8.90;99.90;;;;;;5074201;28;20040;-57
2024/01/03 08:34:36;;;;;;;7.40;1.30;;;8.90;99.90;;;;;;5074375;28;20045;-57
2024/01/03 08:37:01;;;;;;;11.97;1.37;;;9.00;99.90;;;;;;5074319;28;20048;-58
2024/01/03 08:39:27;;;;;;;10.90;1.43;;;8.90;99.90;;;;;;5074274;28;20071;-58
2024/01/03 08:41:53;;;;;;;6.57;1.40;;;8.90;99.90;;;;;;5074120;28;20048;-58
2024/01/03 08:44:23;;;;;;;7.90;1.08;;;8.90;99.90;;;;;;5074117;28;20127;-58
2024/01/03 08:46:48;;;;;;;11.25;1.30;;;8.90;99.90;;;;;;5073804;28;20040;-58
2024/01/03 08:49:14;;;;;;;6.70;1.33;;;8.90;99.90;;;;;;5073895;28;20052;-58
2024/01/03 08:51:44;;;;;;;5.53;0.90;;;8.90;99.90;;;;;;5074112;28;20431;-59
2024/01/03 08:54:10;;;;;;;6.35;0.85;;;8.90;99.90;;;;;;5073992;28;20559;-58
2024/01/03 08:56:39;;;;;;;9.13;1.17;;;9.00;99.90;;;;;;5074066;28;20123;-58
2024/01/03 08:59:05;;;;;;;4.82;0.77;;;8.90;99.90;;;;;;5073805;28;20048;-58
2024/01/03 09:01:34;;;;;;;4.55;0.82;;;8.90;99.90;;;;;;5072640;28;20053;-58
2024/01/03 09:04:00;;;;;;;3.05;0.82;;;9.00;99.90;;;;;;5073244;28;20404;-58
2024/01/03 09:06:26;;;;;;;5.18;0.57;;;8.90;99.90;;;;;;5072359;28;20546;-58
2024/01/03 09:08:53;;;;;;;4.40;0.60;;;8.90;99.90;;;;;;5073826;28;20484;-57
2024/01/03 09:11:22;;;;;;;4.30;1.08;;;8.90;99.90;;;;;;5073804;28;20395;-57
2024/01/03 09:13:49;;;;;;;2.47;0.45;;;8.90;99.90;;;;;;5073532;28;20044;-58
2024/01/03 09:16:18;;;;;;;8.38;1.00;;;8.90;99.90;;;;;;5073641;28;20053;-58
2024/01/03 09:18:45;;;;;;;7.68;0.85;;;8.90;99.90;;;;;;5073712;28;20131;-58
2024/01/03 09:21:11;;;;;;;4.50;0.68;;;8.90;99.90;;;;;;5073608;28;20137;-58
2024/01/03 09:23:37;;;;;;;6.80;1.27;;;9.00;99.90;;;;;;5073651;28;20045;-58
2024/01/03 09:26:06;;;;;;;8.90;1.07;;;9.00;99.90;;;;;;5073388;28;20135;-58
2024/01/03 09:28:34;;;;;;;9.80;0.90;;;9.00;99.90;;;;;;5073473;28;20090;-58
2024/01/03 09:31:04;;;;;;;5.68;0.80;;;9.10;99.90;;;;;;5073562;28;20047;-58
2024/01/03 09:33:33;;;;;;;4.78;0.88;;;9.10;99.90;;;;;;5074140;28;20051;-58
2024/01/03 09:35:58;;;;;;;3.92;0.77;;;9.10;99.90;;;;;;5072700;28;20053;-58
2024/01/03 09:38:24;;;;;;;9.20;1.10;;;9.10;99.90;;;;;;5073568;28;20048;-58
2024/01/03 09:40:51;;;;;;;10.77;1.00;;;9.10;99.90;;;;;;5072609;28;20036;-58
2024/01/03 09:43:17;;;;;;;6.90;2.03;;;9.10;99.90;;;;;;5073480;28;20045;-59
2024/01/03 09:45:43;;;;;;;6.45;0.98;;;9.10;99.90;;;;;;5073877;28;20071;-58
2024/01/03 09:48:09;;;;;;;6.18;0.90;;;9.10;99.90;;;;;;5073465;28;20429;-58
2024/01/03 09:50:35;;;;;;;4.18;0.80;;;9.00;99.90;;;;;;5072367;28;20045;-58
2024/01/03 09:53:03;;;;;;;4.60;1.02;;;9.00;99.90;;;;;;5073398;28;20045;-57
2024/01/03 09:55:29;;;;;;;5.20;0.90;;;8.90;99.90;;;;;;5072102;28;20059;-58
2024/01/03 09:57:56;;;;;;;9.23;0.98;;;8.90;99.90;;;;;;5073119;28;20044;-58
2024/01/03 10:00:23;;;;;;;6.05;1.02;;;8.90;99.90;;;;;;5073986;28;20057;-58
2024/01/03 10:02:50;;;;;;;4.88;0.95;;;8.90;99.90;;;;;;5072282;28;20052;-58
2024/01/03 10:05:19;;;;;;;4.30;1.05;;;8.80;99.90;;;;;;5073107;28;20102;-57
2024/01/03 10:07:45;;;;;;;5.07;0.98;;;8.80;99.90;;;;;;5073150;28;20131;-58
2024/01/03 10:10:11;;;;;;;6.57;1.20;;;8.80;99.90;;;;;;5073222;28;20053;-58
2024/01/03 10:12:37;;;;;;;3.47;0.57;;;8.90;99.90;;;;;;5073128;28;20507;-57
2024/01/03 10:15:16;;;;;;;9.82;1.27;;;8.90;99.90;;;;;;5074245;28;20084;-57
2024/01/03 10:17:46;;;;;;;4.18;1.00;;;8.90;99.90;;;;;;5076860;28;20047;-58
2024/01/03 10:20:26;;;;;;;5.78;0.82;;;8.90;99.90;;;;;;5076770;28;20102;-58
2024/01/03 10:23:06;;;;;;;6.75;0.98;;;9.00;99.90;;;;;;5076821;28;20105;-56
2024/01/03 10:25:32;;;;;;;5.28;0.80;;;9.00;99.90;;;;;;5076761;28;20063;-57
2024/01/03 10:28:03;;;;;;;5.60;0.83;;;9.00;99.90;;;;;;5076705;28;20561;-58
2024/01/03 10:30:29;;;;;;;5.40;0.80;;;9.10;99.90;;;;;;5076687;28;20322;-57
2024/01/03 10:33:01;;;;;;;8.05;1.42;;;9.10;99.90;;;;;;5076857;28;20044;-58
2024/01/03 10:35:34;;;;;;;7.43;0.80;;;9.10;99.90;;;;;;5076440;28;20495;-57
2024/01/03 10:38:01;;;;;;;4.88;0.70;;;9.20;99.90;;;;;;5077022;28;20079;-57
2024/01/03 10:40:29;;;;;;;5.70;1.10;;;9.10;99.90;;;;;;5076549;28;20045;-57
2024/01/03 10:42:56;;;;;;;7.78;0.93;;;9.10;99.90;;;;;;5076462;28;20044;-56
2024/01/03 10:45:22;;;;;;;4.18;1.40;;;9.00;99.90;;;;;;5076301;28;20166;-56
2024/01/03 10:47:48;;;;;;;6.00;0.88;;;9.00;99.90;;;;;;5076395;28;20055;-56
2024/01/03 10:50:15;;;;;;;5.22;0.80;;;9.00;99.90;;;;;;5076459;28;20052;-56
2024/01/03 10:52:45;;;;;;;6.60;0.77;;;8.90;99.90;;;;;;5076348;28;20060;-55
2024/01/03 10:55:22;;;;;;;6.85;0.85;;;8.90;99.90;;;;;;5076251;28;20049;-56
2024/01/03 10:58:03;;;;;;;6.22;0.90;;;8.80;99.90;;;;;;5076345;28;20067;-56
2024/01/03 11:00:57;;;;;;;4.88;0.57;;;8.80;99.90;;;;;;5076201;28;20096;-57
2024/01/03 11:03:54;;;;;;;2.08;0.60;;;8.80;99.90;;;;;;5075043;28;20475;-57
2024/01/03 11:07:12;;;;;;;6.15;0.93;;;8.80;99.90;;;;;;5075607;28;20067;-57
2024/01/03 11:09:38;;;;;;;3.17;0.63;;;8.80;99.90;;;;;;5066948;28;20056;-56
2024/01/03 11:12:09;;;;;;;3.30;0.60;;;8.90;99.90;;;;;;5075953;28;20174;-57
2024/01/03 11:14:35;;;;;;;5.72;0.70;;;9.00;99.90;;;;;;5075833;28;20564;-57
2024/01/03 11:17:01;;;;;;;2.93;0.50;;;9.00;99.90;;;;;;5075854;28;20036;-56
2024/01/03 11:19:29;;;;;;;4.78;1.30;;;9.10;99.90;;;;;;5075623;28;20082;-57
2024/01/03 11:21:55;;;;;;;4.97;0.60;;;9.20;99.90;;;;;;5075802;28;20049;-57
2024/01/03 11:24:21;;;;;;;5.97;1.02;;;9.30;99.90;;;;;;5076062;28;20055;-57
2024/01/03 11:26:56;;;;;;;4.53;0.80;;;9.50;99.90;;;;;;5074844;28;20062;-57
2024/01/03 11:29:46;;;;;;;4.15;0.70;;;9.50;99.90;;;;;;5074611;28;20055;-57
2024/01/03 11:32:24;;;;;;;2.90;0.70;;;9.60;99.90;;;;;;5074910;28;20052;-57
2024/01/03 11:34:50;;;;;;;5.57;1.38;;;9.60;99.90;;;;;;5075502;28;20044;-57
2024/01/03 11:37:16;;;;;;;8.75;1.40;;;9.70;99.90;;;;;;5075306;28;20052;-57
2024/01/03 11:39:45;;;;;;;5.97;0.80;;;9.70;99.90;;;;;;5075407;28;20106;-57
2024/01/03 11:42:21;;;;;;;7.32;1.00;;;9.70;99.90;;;;;;5075053;28;20048;-56
2024/01/03 11:44:59;;;;;;;7.28;0.98;;;9.80;99.90;;;;;;5075376;28;20194;-57
2024/01/03 11:47:25;;;;;;;10.48;0.95;;;9.80;99.90;;;;;;5075282;28;20048;-57
2024/01/03 11:49:57;;;;;;;7.53;0.97;;;9.90;99.90;;;;;;5075155;28;20040;-57
2024/01/03 11:52:40;;;;;;;6.15;0.73;;;9.90;99.90;;;;;;5072223;28;20052;-57
2024/01/03 11:55:11;;;;;;;9.50;1.15;;;10.00;99.90;;;;;;5075070;28;20407;-56
2024/01/03 11:57:41;;;;;;;5.13;0.80;;;10.00;99.90;;;;;;5075028;28;20048;-57
2024/01/03 12:00:12;;;;;;;4.47;1.13;;;10.00;99.90;;;;;;5075017;28;20048;-57
2024/01/03 12:02:48;;;;;;;6.60;1.20;;;10.00;99.90;;;;;;5075106;28;20075;-57
2024/01/03 12:05:14;;;;;;;7.03;1.52;;;10.00;99.90;;;;;;5073726;28;20113;-56
2024/01/03 12:07:40;;;;;;;4.67;0.73;;;10.00;99.90;;;;;;5075366;28;20480;-57
2024/01/03 12:10:08;;;;;;;5.73;0.60;;;10.00;99.90;;;;;;5074897;28;20071;-57
2024/01/03 12:12:34;;;;;;;7.47;1.00;;;10.00;99.90;;;;;;5074898;28;20045;-57
2024/01/03 12:15:00;;;;;;;4.05;0.52;;;9.90;99.90;;;;;;5074816;28;20506;-57
2024/01/03 12:17:28;;;;;;;2.37;0.40;;;9.90;99.90;;;;;;5074640;28;20044;-56
2024/01/03 12:20:05;;;;;;;7.07;0.88;;;9.90;99.90;;;;;;5074344;28;20418;-56
2024/01/03 12:22:31;;;;;;;5.35;0.85;;;9.80;99.90;;;;;;5074655;28;20484;-56
2024/01/03 12:24:57;;;;;;;3.57;0.60;;;9.80;99.90;;;;;;5074689;28;20048;-56
2024/01/03 12:27:26;;;;;;;5.13;1.10;;;9.80;99.90;;;;;;5074477;28;20044;-57
2024/01/03 12:30:08;;;;;;;3.67;0.77;;;9.80;99.90;;;;;;5074459;28;20045;-57
2024/01/03 12:32:35;;;;;;;8.60;0.82;;;9.70;99.90;;;;;;5074437;28;20056;-56
2024/01/03 12:35:01;;;;;;;4.00;0.80;;;9.70;99.90;;;;;;5074361;28;20052;-56
2024/01/03 12:37:28;;;;;;;5.00;1.17;;;9.70;99.90;;;;;;5074211;28;20090;-57
2024/01/03 12:39:54;;;;;;;4.90;0.98;;;9.70;99.90;;;;;;5073240;28;20448;-57
2024/01/03 12:42:20;;;;;;;8.27;0.95;;;9.70;99.90;;;;;;5074045;28;20084;-57
2024/01/03 12:44:45;;;;;;;5.13;1.27;;;9.80;99.90;;;;;;5074007;28;20549;-57
2024/01/03 12:47:11;;;;;;;9.53;0.90;;;9.80;99.90;;;;;;5074262;28;20071;-56
2024/01/03 12:49:38;;;;;;;6.43;0.70;;;9.80;99.90;;;;;;5073288;28;20094;-57
2024/01/03 12:52:04;;;;;;;7.93;1.33;;;9.80;99.90;;;;;;5073115;28;20513;-56
2024/01/03 12:54:30;;;;;;;3.60;0.75;;;9.80;99.90;;;;;;5074122;28;20044;-57
2024/01/03 12:56:56;;;;;;;4.33;0.90;;;9.80;99.90;;;;;;5074041;28;20094;-57
2024/01/03 12:59:22;;;;;;;6.82;1.00;;;9.80;99.90;;;;;;5073730;28;20279;-56